Time;durP1;ratioP1;P1;durP2;ratioP2;P2;SDS_P1;SDS_P2;PMS_P1;PMS_P2;Temp;Humidity;BMP_temperature;BMP_pressure;BME280_temperature;BME280_humidity;BME280_pressure;Samples;Min_cycle;Max_cycle;Signal;HPM_P1;HPM_P2
2022/10/18 00:00:15;;;;;;;132.23;15.50;;;19.90;66.80;;;;;;5114328;27;20446;-88
2022/10/18 00:02:42;;;;;;;107.00;12.10;;;19.60;67.50;;;;;;5114451;27;20484;-85
2022/10/18 00:05:10;;;;;;;172.03;13.47;;;19.40;68.90;;;;;;5112894;27;20458;-86
2022/10/18 00:07:37;;;;;;;77.47;11.40;;;19.30;69.00;;;;;;5111185;27;20554;-86
2022/10/18 00:10:05;;;;;;;107.80;10.37;;;19.30;69.30;;;;;;5112437;27;20450;-86
2022/10/18 00:12:34;;;;;;;49.17;9.70;;;19.10;69.40;;;;;;5113459;27;20468;-86
2022/10/18 00:15:02;;;;;;;16.30;7.23;;;19.00;69.80;;;;;;5111616;27;20445;-87
2022/10/18 00:17:29;;;;;;;26.50;6.73;;;19.30;69.30;;;;;;5112824;27;20455;-87
2022/10/18 00:19:56;;;;;;;45.33;7.33;;;19.50;68.00;;;;;;5116243;27;20451;-88
2022/10/18 00:22:24;;;;;;;11.03;6.70;;;19.60;67.50;;;;;;5114781;27;20474;-86
2022/10/18 00:24:51;;;;;;;35.70;7.37;;;19.60;67.20;;;;;;5093488;27;20471;-88
2022/10/18 00:27:18;;;;;;;20.03;7.37;;;19.50;67.20;;;;;;5111762;27;20541;-86
2022/10/18 00:29:47;;;;;;;14.40;6.33;;;19.30;68.40;;;;;;5109535;27;20814;-85
2022/10/18 00:32:14;;;;;;;10.57;6.60;;;19.40;68.20;;;;;;5112681;27;20462;-86
2022/10/18 00:34:41;;;;;;;13.90;7.00;;;19.60;67.50;;;;;;5109835;27;20438;-87
2022/10/18 00:37:08;;;;;;;38.67;7.00;;;19.70;67.20;;;;;;5112743;27;20486;-86
2022/10/18 00:39:35;;;;;;;48.13;7.27;;;19.80;67.30;;;;;;5109800;27;20950;-86
2022/10/18 00:42:02;;;;;;;13.73;6.40;;;19.80;67.30;;;;;;5111000;27;20470;-86
2022/10/18 00:45:04;;;;;;;35.83;8.50;;;19.90;67.10;;;;;;5111686;27;21301;-87
2022/10/18 00:47:31;;;;;;;47.80;8.13;;;20.00;66.80;;;;;;5110082;27;21458;-87
2022/10/18 00:50:02;;;;;;;19.50;8.50;;;20.00;66.60;;;;;;5113849;27;20447;-86
2022/10/18 00:52:35;;;;;;;10.87;6.70;;;20.00;66.50;;;;;;5113917;27;20481;-88
2022/10/18 00:55:04;;;;;;;12.93;7.10;;;20.10;66.10;;;;;;5112116;27;20555;-86
2022/10/18 00:57:32;;;;;;;15.67;8.27;;;20.00;65.50;;;;;;5113577;27;21115;-86
2022/10/18 00:59:59;;;;;;;10.87;6.60;;;20.00;65.40;;;;;;5110623;27;20443;-87
2022/10/18 01:02:28;;;;;;;11.23;7.10;;;20.00;65.60;;;;;;5112889;27;20478;-86
2022/10/18 01:04:55;;;;;;;16.10;6.63;;;20.00;65.70;;;;;;5114877;27;20466;-87
2022/10/18 01:07:41;;;;;;;11.83;6.37;;;20.00;65.60;;;;;;5110985;27;21083;-85
2022/10/18 01:10:22;;;;;;;15.90;6.47;;;20.00;65.30;;;;;;5110986;27;20883;-87
2022/10/18 01:12:59;;;;;;;12.33;6.63;;;20.10;65.40;;;;;;5112502;27;20470;-86
2022/10/18 01:15:27;;;;;;;10.30;6.80;;;20.10;65.50;;;;;;5119994;27;20448;-87
2022/10/18 01:18:03;;;;;;;8.60;6.20;;;19.80;65.80;;;;;;5112458;27;20446;-86
2022/10/18 01:21:07;;;;;;;8.73;7.37;;;19.50;67.10;;;;;;5112625;27;20537;-86
2022/10/18 01:23:54;;;;;;;8.57;5.90;;;19.50;67.50;;;;;;5111512;27;20958;-87
2022/10/18 01:26:48;;;;;;;13.20;7.40;;;19.60;67.30;;;;;;5119594;27;20456;-87
2022/10/18 01:29:22;;;;;;;8.13;6.43;;;19.70;67.20;;;;;;5111687;27;20808;-88
2022/10/18 01:31:57;;;;;;;26.70;7.23;;;19.70;67.10;;;;;;5114021;27;20867;-86
2022/10/18 01:34:27;;;;;;;45.10;8.17;;;19.70;66.90;;;;;;5107741;27;20541;-86
2022/10/18 01:36:56;;;;;;;32.30;7.77;;;19.50;67.40;;;;;;5110283;27;20445;-86
2022/10/18 01:39:27;;;;;;;11.83;7.43;;;19.50;67.70;;;;;;5109985;27;20446;-87
2022/10/18 01:41:57;;;;;;;11.13;8.23;;;19.50;67.40;;;;;;5114344;27;21505;-88
2022/10/18 01:44:27;;;;;;;14.23;8.33;;;19.70;67.30;;;;;;5110395;27;20573;-86
2022/10/18 01:46:56;;;;;;;12.27;8.00;;;19.80;66.90;;;;;;5111760;27;20439;-86
2022/10/18 01:49:25;;;;;;;23.63;8.73;;;19.80;66.70;;;;;;5100131;27;20455;-86
2022/10/18 01:51:53;;;;;;;16.43;7.83;;;19.90;66.40;;;;;;5108548;27;20546;-87
2022/10/18 01:54:29;;;;;;;10.30;6.80;;;19.60;66.80;;;;;;5113074;27;20485;-87
2022/10/18 01:57:01;;;;;;;13.07;7.07;;;19.70;67.00;;;;;;5108702;27;20445;-86
2022/10/18 01:59:44;;;;;;;10.60;6.80;;;19.60;67.00;;;;;;5112054;27;20453;-86
2022/10/18 02:02:24;;;;;;;8.53;6.40;;;19.50;67.40;;;;;;5109803;27;20466;-87
2022/10/18 02:04:58;;;;;;;9.90;7.67;;;19.60;67.40;;;;;;5113903;27;20514;-86
2022/10/18 02:07:31;;;;;;;13.53;7.60;;;19.60;67.30;;;;;;5110153;27;20438;-86
2022/10/18 02:10:04;;;;;;;9.50;6.93;;;19.70;67.00;;;;;;5111101;27;20985;-87
2022/10/18 02:12:33;;;;;;;9.53;6.73;;;19.70;67.10;;;;;;5110692;27;20484;-87
2022/10/18 02:15:02;;;;;;;13.70;7.73;;;19.70;67.20;;;;;;5110198;27;20443;-86
2022/10/18 02:17:31;;;;;;;10.23;7.63;;;19.80;66.90;;;;;;5110284;27;20447;-87
2022/10/18 02:20:01;;;;;;;7.33;6.40;;;19.80;66.80;;;;;;5113185;27;21150;-86
2022/10/18 02:22:32;;;;;;;11.17;7.50;;;19.80;66.80;;;;;;5109418;27;20838;-87
2022/10/18 02:25:03;;;;;;;10.27;7.90;;;19.90;66.60;;;;;;5109592;27;20474;-87
2022/10/18 02:27:30;;;;;;;9.40;7.03;;;20.00;66.50;;;;;;5111161;27;21237;-86
2022/10/18 02:29:58;;;;;;;11.27;7.33;;;20.00;65.90;;;;;;5109292;27;20449;-86
2022/10/18 02:32:32;;;;;;;9.67;6.23;;;19.90;66.40;;;;;;5108985;28;20463;-88
2022/10/18 02:35:04;;;;;;;12.47;7.60;;;19.90;66.20;;;;;;5109251;27;20446;-87
2022/10/18 02:37:36;;;;;;;7.20;6.17;;;20.00;66.30;;;;;;5118434;28;20527;-87
2022/10/18 02:40:05;;;;;;;8.93;7.23;;;19.90;66.40;;;;;;5109355;27;20871;-87
2022/10/18 02:42:36;;;;;;;11.53;6.53;;;19.90;66.50;;;;;;5110030;28;20478;-88
2022/10/18 02:45:04;;;;;;;10.00;6.60;;;20.00;66.40;;;;;;5111341;28;20454;-86
2022/10/18 02:47:33;;;;;;;13.03;6.90;;;20.00;66.20;;;;;;5110051;28;20446;-87
2022/10/18 02:50:00;;;;;;;7.73;6.23;;;19.90;66.40;;;;;;5108716;28;20459;-86
2022/10/18 02:52:27;;;;;;;9.33;6.77;;;19.70;67.10;;;;;;5106109;28;21029;-87
2022/10/18 02:54:54;;;;;;;9.43;6.80;;;19.70;67.20;;;;;;5110399;28;20465;-87
2022/10/18 02:57:21;;;;;;;11.00;7.63;;;19.70;67.20;;;;;;5109365;28;20446;-86
2022/10/18 02:59:48;;;;;;;10.70;7.40;;;19.80;67.20;;;;;;5108552;28;20442;-88
2022/10/18 03:02:15;;;;;;;11.90;8.03;;;19.90;66.80;;;;;;5111789;28;20817;-86
2022/10/18 03:04:43;;;;;;;14.73;8.27;;;19.90;66.50;;;;;;5110809;28;20474;-87
2022/10/18 03:07:10;;;;;;;13.57;7.30;;;19.90;66.60;;;;;;5111358;28;20486;-87
2022/10/18 03:09:37;;;;;;;14.10;8.10;;;20.00;66.10;;;;;;5107237;27;20496;-86
2022/10/18 03:12:05;;;;;;;10.53;8.00;;;19.90;66.60;;;;;;5112015;27;20466;-87
2022/10/18 03:14:32;;;;;;;11.43;8.00;;;19.90;66.70;;;;;;5117792;28;21188;-85
2022/10/18 03:16:59;;;;;;;16.70;8.00;;;19.90;66.20;;;;;;5108984;27;20442;-86
2022/10/18 03:19:26;;;;;;;9.73;7.83;;;20.00;66.20;;;;;;5112036;27;20445;-87
2022/10/18 03:21:55;;;;;;;12.07;7.77;;;20.00;66.60;;;;;;5115199;27;20859;-87
2022/10/18 03:24:22;;;;;;;11.03;8.67;;;19.90;66.80;;;;;;5110267;27;20470;-85
2022/10/18 03:26:49;;;;;;;8.73;7.10;;;19.70;67.10;;;;;;5116092;27;20516;-86
2022/10/18 03:29:16;;;;;;;8.87;6.70;;;19.80;67.90;;;;;;5112834;27;20457;-85
2022/10/18 03:31:43;;;;;;;10.93;7.90;;;19.90;66.90;;;;;;5113747;27;20533;-88
2022/10/18 03:34:14;;;;;;;11.73;8.20;;;19.90;66.60;;;;;;5111746;27;20453;-87
2022/10/18 03:36:41;;;;;;;15.37;8.97;;;20.00;66.40;;;;;;5108536;27;20452;-86
2022/10/18 03:39:11;;;;;;;14.60;8.00;;;20.00;66.10;;;;;;5114066;27;20454;-86
2022/10/18 03:41:38;;;;;;;11.60;8.07;;;20.10;66.00;;;;;;5114695;27;20477;-87
2022/10/18 03:44:05;;;;;;;13.30;8.83;;;20.00;66.30;;;;;;5111633;27;20470;-87
2022/10/18 03:46:32;;;;;;;10.40;7.90;;;19.90;66.40;;;;;;5113832;27;20451;-87
2022/10/18 03:48:59;;;;;;;9.60;7.13;;;19.90;66.50;;;;;;5112307;27;20955;-87
2022/10/18 03:51:26;;;;;;;17.30;7.73;;;19.90;66.60;;;;;;5098622;27;20522;-88
2022/10/18 03:53:53;;;;;;;12.17;7.30;;;20.00;66.50;;;;;;5113157;27;20452;-87
2022/10/18 03:56:21;;;;;;;10.87;7.63;;;19.90;66.30;;;;;;5115564;27;20481;-88
2022/10/18 03:58:49;;;;;;;12.20;9.47;;;19.90;66.30;;;;;;5112196;27;20530;-87
2022/10/18 04:01:16;;;;;;;16.90;9.60;;;20.00;66.20;;;;;;5113062;27;20465;-87
2022/10/18 04:03:43;;;;;;;16.40;11.10;;;20.00;66.30;;;;;;5113805;27;20447;-88
2022/10/18 04:06:10;;;;;;;16.17;11.43;;;20.00;66.20;;;;;;5112993;27;20459;-87
2022/10/18 04:08:37;;;;;;;16.60;11.53;;;19.90;66.30;;;;;;5110101;27;20474;-86
2022/10/18 04:11:08;;;;;;;16.17;11.70;;;20.00;66.10;;;;;;5104116;27;20462;-88
2022/10/18 04:13:37;;;;;;;16.90;12.20;;;20.00;66.20;;;;;;5101853;27;20458;-86
2022/10/18 04:16:04;;;;;;;14.37;9.83;;;19.90;66.60;;;;;;5092289;28;20443;-88
2022/10/18 04:18:31;;;;;;;14.30;10.97;;;19.80;66.80;;;;;;5110879;27;20453;-88
2022/10/18 04:20:58;;;;;;;13.57;8.80;;;19.70;67.20;;;;;;5112141;27;20504;-86
2022/10/18 04:23:25;;;;;;;11.30;8.33;;;19.80;67.10;;;;;;5099869;27;20544;-87
2022/10/18 04:25:53;;;;;;;11.10;8.67;;;19.90;66.60;;;;;;5116422;27;20466;-88
2022/10/18 04:28:20;;;;;;;10.90;7.80;;;19.90;66.40;;;;;;5115348;27;20455;-87
2022/10/18 04:30:51;;;;;;;7.97;7.07;;;20.00;66.40;;;;;;5114209;27;20461;-86
2022/10/18 04:33:19;;;;;;;9.30;6.60;;;20.00;66.10;;;;;;5114212;27;20971;-87
2022/10/18 04:35:46;;;;;;;10.60;6.63;;;20.00;65.80;;;;;;5104642;27;20486;-87
2022/10/18 04:38:14;;;;;;;9.90;6.60;;;20.00;65.60;;;;;;5115846;27;20446;-88
2022/10/18 04:40:41;;;;;;;7.20;6.50;;;20.00;65.60;;;;;;5116177;27;20457;-86
2022/10/18 04:43:08;;;;;;;10.53;7.03;;;20.00;65.50;;;;;;5113144;27;20985;-87
2022/10/18 04:45:35;;;;;;;13.57;8.07;;;20.00;65.60;;;;;;5111974;27;20457;-87
2022/10/18 04:48:04;;;;;;;11.30;8.83;;;20.00;66.00;;;;;;5112341;27;20464;-86
2022/10/18 04:50:31;;;;;;;14.87;9.03;;;20.00;66.20;;;;;;5122223;27;20470;-87
2022/10/18 04:52:58;;;;;;;12.00;8.60;;;19.90;66.20;;;;;;5111824;27;20461;-88
2022/10/18 04:55:25;;;;;;;10.33;7.70;;;19.90;66.50;;;;;;5112600;27;20474;-87
2022/10/18 04:57:53;;;;;;;11.43;6.70;;;19.80;66.80;;;;;;5112951;27;20446;-87
2022/10/18 05:00:20;;;;;;;9.40;7.10;;;19.80;66.60;;;;;;5121048;27;20459;-87
2022/10/18 05:02:47;;;;;;;32.27;8.20;;;19.80;66.60;;;;;;5112723;27;21007;-87
2022/10/18 05:05:16;;;;;;;13.90;7.47;;;19.80;66.90;;;;;;5114707;27;20498;-86
2022/10/18 05:07:43;;;;;;;46.70;10.10;;;19.80;66.80;;;;;;5116631;27;20482;-86
2022/10/18 05:10:10;;;;;;;15.67;7.70;;;19.80;66.60;;;;;;5114627;27;20474;-87
2022/10/18 05:12:37;;;;;;;13.00;9.10;;;19.80;66.50;;;;;;5111371;27;21164;-85
2022/10/18 05:15:05;;;;;;;14.20;8.90;;;19.80;66.50;;;;;;5116017;27;20984;-87
2022/10/18 05:17:32;;;;;;;13.33;7.53;;;19.90;66.50;;;;;;5108477;27;20443;-87
2022/10/18 05:19:59;;;;;;;10.27;8.73;;;19.90;66.40;;;;;;5096817;27;20515;-89
2022/10/18 05:22:27;;;;;;;11.07;7.20;;;19.90;66.10;;;;;;5112818;27;20554;-85
2022/10/18 05:24:54;;;;;;;14.73;8.67;;;19.80;66.40;;;;;;5111352;27;20455;-89
2022/10/18 05:27:21;;;;;;;20.83;9.70;;;19.90;66.40;;;;;;5114049;27;20458;-90
2022/10/18 05:29:49;;;;;;;25.17;8.90;;;19.90;66.20;;;;;;5115851;27;20443;-87
2022/10/18 05:32:16;;;;;;;12.70;8.50;;;19.90;66.20;;;;;;5076680;27;20561;-88
2022/10/18 05:34:43;;;;;;;12.17;8.47;;;19.70;66.40;;;;;;5102542;28;20439;-88
2022/10/18 05:37:10;;;;;;;11.20;7.40;;;19.80;66.60;;;;;;5093469;27;20951;-87
2022/10/18 05:39:38;;;;;;;7.33;6.63;;;19.80;66.30;;;;;;5099050;27;20544;-87
2022/10/18 05:42:07;;;;;;;11.67;7.80;;;19.70;66.30;;;;;;5123291;27;20716;-87
2022/10/18 05:44:34;;;;;;;39.27;9.67;;;19.70;66.30;;;;;;5111465;27;20447;-86
2022/10/18 05:47:01;;;;;;;29.67;9.23;;;19.60;66.30;;;;;;5098431;27;20502;-87
2022/10/18 05:49:28;;;;;;;10.30;7.67;;;19.20;67.70;;;;;;5112604;27;20508;-88
2022/10/18 05:51:55;;;;;;;25.33;9.00;;;19.20;67.70;;;;;;5098461;27;20530;-88
2022/10/18 05:54:22;;;;;;;11.13;7.87;;;18.90;68.50;;;;;;5083618;27;21375;-87
2022/10/18 05:56:50;;;;;;;11.30;7.33;;;18.60;70.20;;;;;;5116923;27;20454;-86
2022/10/18 05:59:17;;;;;;;9.53;7.90;;;18.80;69.20;;;;;;5113574;27;20450;-88
2022/10/18 06:01:44;;;;;;;8.97;8.07;;;18.50;69.90;;;;;;5102821;27;20485;-87
2022/10/18 06:04:12;;;;;;;7.60;6.80;;;18.20;71.20;;;;;;5098469;27;20457;-85
2022/10/18 06:06:39;;;;;;;8.60;5.63;;;18.20;71.10;;;;;;5122136;27;20497;-87
2022/10/18 06:09:07;;;;;;;9.87;6.90;;;18.30;71.30;;;;;;5101489;27;20469;-86
2022/10/18 06:11:36;;;;;;;9.50;7.37;;;18.50;70.20;;;;;;5103267;27;20493;-85
2022/10/18 06:14:04;;;;;;;8.30;6.50;;;18.80;69.50;;;;;;5101204;27;20955;-87
2022/10/18 06:16:32;;;;;;;7.87;7.07;;;19.00;68.60;;;;;;5111611;27;20447;-86
2022/10/18 06:18:59;;;;;;;12.83;7.00;;;19.20;67.90;;;;;;5116954;27;20438;-87
2022/10/18 06:21:26;;;;;;;12.07;7.67;;;19.30;67.50;;;;;;5108892;27;20486;-86
2022/10/18 06:23:56;;;;;;;9.07;6.80;;;19.40;67.00;;;;;;5114522;27;21123;-87
2022/10/18 06:26:24;;;;;;;21.73;15.70;;;19.30;67.20;;;;;;5114322;27;20613;-85
2022/10/18 06:28:51;;;;;;;14.57;11.40;;;19.30;67.00;;;;;;5111819;27;20526;-87
2022/10/18 06:31:20;;;;;;;20.33;17.37;;;19.20;67.40;;;;;;5114493;28;20464;-85
2022/10/18 06:33:48;;;;;;;16.87;14.67;;;18.90;67.90;;;;;;5116738;28;20439;-86
2022/10/18 06:36:16;;;;;;;17.73;11.20;;;19.10;68.00;;;;;;5113310;28;20468;-87
2022/10/18 06:38:44;;;;;;;22.37;12.80;;;19.30;67.50;;;;;;5113946;28;20585;-86
2022/10/18 06:41:11;;;;;;;12.97;7.20;;;19.40;67.10;;;;;;5112115;27;20566;-85
2022/10/18 06:43:38;;;;;;;9.37;7.50;;;19.40;67.20;;;;;;5096075;28;20989;-86
2022/10/18 06:46:07;;;;;;;12.43;7.93;;;19.30;67.70;;;;;;5111733;28;21049;-86
2022/10/18 06:48:36;;;;;;;9.97;7.53;;;19.50;67.40;;;;;;5112053;28;20798;-86
2022/10/18 06:51:06;;;;;;;11.00;8.03;;;19.70;66.90;;;;;;5113114;28;21014;-86
2022/10/18 06:53:35;;;;;;;10.93;7.60;;;19.70;66.80;;;;;;5095747;27;20492;-86
2022/10/18 06:56:05;;;;;;;10.30;9.10;;;19.80;66.60;;;;;;5114773;27;20488;-88
2022/10/18 06:58:32;;;;;;;16.60;9.30;;;19.80;66.50;;;;;;5113861;27;20447;-86
2022/10/18 07:00:59;;;;;;;11.00;8.87;;;19.80;66.30;;;;;;5116914;27;20446;-85
2022/10/18 07:03:26;;;;;;;11.73;8.00;;;19.80;66.50;;;;;;5107260;27;20434;-87
2022/10/18 07:05:59;;;;;;;9.07;7.23;;;19.60;67.10;;;;;;5098835;27;20466;-86
2022/10/18 07:08:26;;;;;;;10.83;7.90;;;19.50;67.60;;;;;;5113707;27;20454;-85
2022/10/18 07:10:54;;;;;;;13.90;8.33;;;19.60;68.10;;;;;;5113316;27;20525;-85
2022/10/18 07:13:21;;;;;;;10.10;7.60;;;19.70;67.20;;;;;;5117655;27;20483;-85
2022/10/18 07:15:48;;;;;;;9.50;8.00;;;19.80;67.60;;;;;;5114922;27;20674;-86
2022/10/18 07:18:15;;;;;;;10.43;7.90;;;19.90;66.50;;;;;;5118919;27;21001;-84
2022/10/18 07:20:42;;;;;;;19.17;7.63;;;19.80;66.70;;;;;;5123819;27;20442;-86
2022/10/18 07:23:11;;;;;;;14.40;9.17;;;19.50;67.50;;;;;;5112759;27;20472;-86
2022/10/18 07:25:38;;;;;;;13.20;8.37;;;19.40;68.20;;;;;;5116417;27;20466;-85
2022/10/18 07:28:05;;;;;;;13.20;9.50;;;19.40;67.90;;;;;;5108272;27;20437;-85
2022/10/18 07:30:32;;;;;;;87.67;14.40;;;19.60;67.70;;;;;;5113933;27;20456;-87
2022/10/18 07:32:59;;;;;;;22.27;12.40;;;19.60;67.50;;;;;;5116610;27;20497;-85
2022/10/18 07:35:26;;;;;;;20.90;12.13;;;19.70;67.60;;;;;;5115152;27;20492;-85
2022/10/18 07:37:53;;;;;;;25.27;11.77;;;19.60;67.90;;;;;;5118027;27;20491;-85
2022/10/18 07:40:21;;;;;;;21.43;10.70;;;19.70;67.80;;;;;;5115104;27;20462;-86
2022/10/18 07:42:48;;;;;;;13.97;10.27;;;19.70;67.70;;;;;;5114556;27;20981;-86
2022/10/18 07:45:15;;;;;;;16.87;10.20;;;19.80;67.60;;;;;;5098013;27;20474;-85
2022/10/18 07:47:42;;;;;;;21.60;10.10;;;19.80;67.60;;;;;;5116360;27;20462;-84
2022/10/18 07:50:10;;;;;;;12.90;9.53;;;19.80;67.80;;;;;;5115739;27;20456;-85
2022/10/18 07:52:37;;;;;;;10.60;8.77;;;19.90;67.50;;;;;;5112375;27;20545;-86
2022/10/18 07:55:05;;;;;;;13.20;7.80;;;20.00;66.80;;;;;;5114600;27;20447;-87
2022/10/18 07:57:33;;;;;;;9.60;7.70;;;19.90;67.00;;;;;;5114012;27;20445;-85
2022/10/18 08:00:00;;;;;;;14.27;9.17;;;19.90;67.20;;;;;;5116209;27;20569;-86
2022/10/18 08:02:27;;;;;;;9.40;8.40;;;20.00;67.30;;;;;;5116324;27;20474;-86
2022/10/18 08:04:54;;;;;;;12.83;8.87;;;20.10;67.20;;;;;;5110888;27;20473;-86
2022/10/18 08:07:21;;;;;;;12.93;9.13;;;20.10;67.20;;;;;;5115220;27;20470;-84
2022/10/18 08:09:48;;;;;;;11.60;10.00;;;20.00;67.80;;;;;;5098586;27;20465;-87
2022/10/18 08:12:15;;;;;;;12.20;8.70;;;20.00;67.80;;;;;;5115130;27;20590;-85
2022/10/18 08:14:44;;;;;;;11.70;8.03;;;19.90;68.50;;;;;;5117845;27;20460;-84
2022/10/18 08:17:11;;;;;;;11.13;7.03;;;19.80;68.50;;;;;;5119441;27;20478;-85
2022/10/18 08:19:38;;;;;;;9.50;8.53;;;19.60;69.00;;;;;;5116986;27;20446;-87
2022/10/18 08:22:05;;;;;;;9.13;7.20;;;19.60;70.00;;;;;;5116702;27;20461;-86
2022/10/18 08:24:32;;;;;;;11.93;8.00;;;19.60;68.90;;;;;;5104582;27;20438;-87
2022/10/18 08:26:59;;;;;;;10.97;7.50;;;19.70;68.90;;;;;;5115922;27;20543;-86
2022/10/18 08:29:26;;;;;;;11.70;8.13;;;19.90;69.40;;;;;;5123086;27;20485;-87
2022/10/18 08:31:54;;;;;;;14.07;7.97;;;19.90;68.10;;;;;;5116917;27;20519;-86
2022/10/18 08:34:21;;;;;;;19.63;9.20;;;20.00;68.00;;;;;;5114126;27;20452;-86
2022/10/18 08:36:48;;;;;;;17.63;9.50;;;20.00;68.00;;;;;;5097304;27;20542;-86
2022/10/18 08:39:15;;;;;;;15.53;8.53;;;19.70;69.30;;;;;;5112201;27;20450;-85
2022/10/18 08:42:00;;;;;;;14.87;8.37;;;19.30;71.30;;;;;;5108445;27;20472;-85
2022/10/18 08:44:30;;;;;;;18.60;9.60;;;19.20;72.10;;;;;;5107784;27;20476;-87
2022/10/18 08:47:03;;;;;;;13.63;10.63;;;19.40;71.90;;;;;;5112026;27;20528;-86
2022/10/18 08:49:37;;;;;;;11.33;9.80;;;19.50;71.70;;;;;;5110429;27;20440;-86
2022/10/18 08:52:12;;;;;;;17.30;13.33;;;19.50;72.20;;;;;;5111700;27;20969;-85
2022/10/18 08:54:43;;;;;;;24.73;16.50;;;19.20;73.30;;;;;;5110664;27;20540;-86
2022/10/18 08:57:16;;;;;;;18.43;13.50;;;19.20;74.20;;;;;;5111711;27;20438;-86
2022/10/18 08:59:44;;;;;;;19.27;10.80;;;18.80;75.00;;;;;;5111027;27;20535;-86
2022/10/18 09:02:29;;;;;;;13.73;10.70;;;19.00;75.10;;;;;;5111011;27;20589;-85
2022/10/18 09:05:03;;;;;;;18.77;15.10;;;19.20;74.20;;;;;;5112386;27;20532;-87
2022/10/18 09:07:55;;;;;;;18.80;13.30;;;19.40;73.80;;;;;;5110077;27;20475;-87
2022/10/18 09:10:35;;;;;;;15.10;11.50;;;19.50;73.50;;;;;;5089601;27;20552;-84
2022/10/18 09:13:20;;;;;;;21.27;13.20;;;19.40;75.60;;;;;;5110875;27;21029;-88
2022/10/18 09:15:54;;;;;;;16.30;11.97;;;19.30;76.50;;;;;;5109522;27;20496;-87
2022/10/18 09:18:36;;;;;;;14.47;10.50;;;19.30;76.50;;;;;;5109679;27;20841;-85
2022/10/18 09:21:15;;;;;;;18.30;15.60;;;19.10;76.50;;;;;;5111717;27;20446;-87
2022/10/18 09:23:47;;;;;;;20.27;15.90;;;19.20;76.80;;;;;;5112172;27;20477;-87
2022/10/18 09:26:17;;;;;;;18.43;15.07;;;19.60;75.80;;;;;;5092641;28;20894;-87
2022/10/18 09:28:59;;;;;;;15.27;12.30;;;19.90;75.20;;;;;;5110676;27;20919;-88
2022/10/18 09:31:34;;;;;;;19.73;14.30;;;20.30;74.20;;;;;;5108731;27;20781;-87
2022/10/18 09:34:08;;;;;;;17.20;11.93;;;20.60;73.40;;;;;;5109604;27;20552;-87
2022/10/18 09:36:38;;;;;;;17.53;12.00;;;20.70;72.40;;;;;;5113123;27;20911;-87
2022/10/18 09:39:11;;;;;;;15.70;13.13;;;20.40;72.70;;;;;;5108964;27;20443;-87
2022/10/18 09:41:45;;;;;;;17.40;11.80;;;20.50;72.70;;;;;;5110489;27;20469;-86
2022/10/18 09:44:17;;;;;;;14.77;12.10;;;20.60;71.90;;;;;;5110304;27;20478;-87
2022/10/18 09:46:49;;;;;;;18.30;12.00;;;20.80;72.80;;;;;;5109845;27;20466;-86
2022/10/18 09:49:23;;;;;;;17.60;12.30;;;20.90;71.00;;;;;;5111228;27;20450;-86
2022/10/18 09:51:53;;;;;;;16.63;12.00;;;20.80;71.60;;;;;;5116630;27;20507;-86
2022/10/18 09:54:29;;;;;;;16.07;10.63;;;20.70;72.10;;;;;;5111847;27;20545;-87
2022/10/18 09:57:03;;;;;;;14.17;10.33;;;20.90;72.10;;;;;;5119514;27;20439;-87
2022/10/18 09:59:35;;;;;;;13.73;10.07;;;21.00;71.30;;;;;;5110182;27;20457;-88
2022/10/18 10:02:02;;;;;;;17.70;12.20;;;20.90;71.70;;;;;;5112728;27;20842;-86
2022/10/18 10:04:30;;;;;;;21.33;13.33;;;20.90;71.80;;;;;;5111466;27;20453;-86
2022/10/18 10:07:01;;;;;;;16.10;12.30;;;21.10;71.70;;;;;;5110393;27;20474;-88
2022/10/18 10:09:29;;;;;;;14.77;11.87;;;21.20;71.20;;;;;;5111352;27;20459;-87
2022/10/18 10:11:57;;;;;;;24.87;15.73;;;21.10;71.00;;;;;;5110363;27;21000;-87
2022/10/18 10:14:26;;;;;;;14.53;10.93;;;21.10;71.70;;;;;;5112841;27;21336;-84
2022/10/18 10:16:55;;;;;;;13.30;9.67;;;21.20;72.20;;;;;;5112540;27;20442;-85
2022/10/18 10:19:27;;;;;;;15.20;9.73;;;21.40;72.00;;;;;;5108820;27;21005;-87
2022/10/18 10:22:01;;;;;;;13.53;11.07;;;21.60;71.50;;;;;;5108268;27;21243;-88
2022/10/18 10:24:36;;;;;;;16.03;11.07;;;21.40;71.70;;;;;;5106696;27;20445;-86
2022/10/18 10:27:06;;;;;;;16.80;11.47;;;21.30;72.20;;;;;;5108654;27;20565;-86
2022/10/18 10:29:56;;;;;;;19.00;11.60;;;21.50;72.30;;;;;;5112712;27;20566;-85
2022/10/18 10:32:26;;;;;;;15.53;8.70;;;21.60;72.00;;;;;;5108893;27;20479;-87
2022/10/18 10:34:53;;;;;;;11.80;8.20;;;21.70;71.50;;;;;;5108775;28;20447;-87
2022/10/18 10:37:39;;;;;;;12.47;9.73;;;21.70;71.80;;;;;;5111124;27;20445;-87
2022/10/18 10:40:22;;;;;;;15.70;10.03;;;21.90;71.50;;;;;;5111397;28;20474;-87
2022/10/18 10:43:16;;;;;;;15.20;9.30;;;21.90;71.70;;;;;;5113154;28;20473;-85
2022/10/18 10:45:56;;;;;;;11.83;8.40;;;22.00;71.00;;;;;;5106157;28;20451;-86
2022/10/18 10:48:24;;;;;;;13.17;9.40;;;22.20;70.90;;;;;;5111801;28;20467;-86
2022/10/18 10:51:01;;;;;;;13.83;9.30;;;22.30;70.60;;;;;;5111338;28;20457;-86
2022/10/18 10:53:38;;;;;;;11.40;7.87;;;22.50;70.50;;;;;;5110816;28;20531;-85
2022/10/18 10:56:13;;;;;;;10.10;7.20;;;22.40;69.80;;;;;;5111575;28;21078;-87
2022/10/18 10:58:41;;;;;;;11.57;8.07;;;22.50;70.30;;;;;;5116811;28;20958;-87
2022/10/18 11:01:21;;;;;;;10.80;8.77;;;22.50;70.10;;;;;;5120939;28;20455;-87
2022/10/18 11:03:50;;;;;;;9.50;8.20;;;22.50;70.70;;;;;;5109647;28;20530;-87
2022/10/18 11:06:47;;;;;;;8.53;7.63;;;22.60;70.60;;;;;;5111651;28;20443;-87
2022/10/18 11:09:42;;;;;;;10.17;8.60;;;22.70;70.50;;;;;;5073367;28;20430;-88
2022/10/18 11:12:21;;;;;;;14.07;9.23;;;22.60;70.30;;;;;;5108255;28;20557;-88
2022/10/18 11:14:55;;;;;;;11.73;9.23;;;22.50;70.20;;;;;;5109322;28;20427;-88
2022/10/18 11:17:32;;;;;;;15.63;9.53;;;22.40;71.50;;;;;;5094414;28;20439;-89
2022/10/18 11:20:09;;;;;;;11.03;9.23;;;22.40;72.00;;;;;;5112562;28;20438;-87
2022/10/18 11:22:42;;;;;;;11.10;9.60;;;22.40;71.90;;;;;;5109982;28;20472;-86
2022/10/18 11:25:14;;;;;;;17.07;9.70;;;22.30;71.70;;;;;;5109819;28;20461;-86
2022/10/18 11:27:46;;;;;;;14.80;10.90;;;22.20;71.90;;;;;;5112069;28;20466;-88
2022/10/18 11:30:41;;;;;;;15.00;9.87;;;22.20;72.30;;;;;;5111425;28;21093;-87
2022/10/18 11:33:21;;;;;;;11.03;8.97;;;22.30;72.20;;;;;;5109409;28;20562;-88
2022/10/18 11:35:52;;;;;;;14.70;10.90;;;22.40;71.90;;;;;;5111483;28;20946;-86
2022/10/18 11:38:31;;;;;;;12.30;10.30;;;22.40;71.60;;;;;;5095070;28;20543;-87
2022/10/18 11:41:26;;;;;;;26.43;12.40;;;22.50;71.60;;;;;;5121850;27;20521;-88
2022/10/18 11:43:55;;;;;;;17.50;10.00;;;22.40;71.70;;;;;;5114458;27;20490;-87
2022/10/18 11:46:32;;;;;;;11.60;9.23;;;22.50;71.30;;;;;;5113009;27;20456;-86
2022/10/18 11:49:09;;;;;;;10.83;9.50;;;22.60;71.10;;;;;;5118632;27;20523;-87
2022/10/18 11:51:47;;;;;;;16.80;10.93;;;22.50;71.50;;;;;;5115452;27;20478;-87
2022/10/18 11:54:31;;;;;;;13.87;9.73;;;22.70;71.00;;;;;;5114472;27;21220;-87
2022/10/18 11:57:10;;;;;;;14.53;8.30;;;22.70;70.50;;;;;;5114750;27;20445;-87
2022/10/18 11:59:43;;;;;;;10.90;9.77;;;22.70;70.90;;;;;;5115076;27;20443;-89
2022/10/18 12:02:47;;;;;;;11.30;8.47;;;22.50;70.70;;;;;;5099142;27;20557;-85
2022/10/18 12:05:15;;;;;;;12.77;8.17;;;22.40;70.30;;;;;;5092815;27;20507;-88
2022/10/18 12:07:48;;;;;;;11.87;7.87;;;22.40;70.10;;;;;;5095980;27;20840;-87
2022/10/18 12:10:18;;;;;;;11.83;8.63;;;22.50;70.50;;;;;;5112544;27;20519;-88
2022/10/18 12:12:52;;;;;;;14.87;9.73;;;22.60;70.30;;;;;;5097251;27;20466;-87
2022/10/18 12:15:23;;;;;;;10.50;8.50;;;22.60;70.20;;;;;;5113427;27;21024;-87
2022/10/18 12:17:54;;;;;;;8.10;7.30;;;22.70;70.40;;;;;;5113562;27;20430;-87
2022/10/18 12:20:26;;;;;;;11.80;8.17;;;22.60;70.00;;;;;;5115384;27;20435;-89
2022/10/18 12:23:00;;;;;;;10.80;8.70;;;22.80;69.70;;;;;;5113853;27;20560;-87
2022/10/18 12:25:29;;;;;;;10.30;8.80;;;22.90;69.60;;;;;;5113341;27;20457;-86
2022/10/18 12:28:02;;;;;;;9.90;6.80;;;22.90;69.60;;;;;;5113990;27;20467;-87
2022/10/18 12:30:37;;;;;;;13.43;6.67;;;22.80;69.10;;;;;;5088798;27;20454;-87
2022/10/18 12:33:10;;;;;;;6.87;6.10;;;22.80;68.70;;;;;;5113975;27;20480;-87
2022/10/18 12:35:51;;;;;;;6.70;6.10;;;22.80;69.10;;;;;;5111510;27;20439;-86
2022/10/18 12:38:24;;;;;;;6.60;4.97;;;22.80;68.80;;;;;;5111095;27;20439;-87
2022/10/18 12:40:53;;;;;;;8.33;5.87;;;22.60;67.40;;;;;;5119057;27;20532;-87
2022/10/18 12:43:25;;;;;;;11.67;8.60;;;22.50;67.60;;;;;;5094647;27;20469;-88
2022/10/18 12:45:55;;;;;;;9.17;6.90;;;22.70;67.80;;;;;;5114333;27;20529;-86
2022/10/18 12:48:34;;;;;;;14.13;8.70;;;22.90;67.90;;;;;;5114125;27;20461;-85
2022/10/18 12:51:06;;;;;;;11.57;8.20;;;23.00;67.40;;;;;;5113095;27;20962;-87
2022/10/18 12:53:34;;;;;;;5.63;4.57;;;23.00;66.70;;;;;;5113947;27;20446;-88